Time;durP1;ratioP1;P1;durP2;ratioP2;P2;SDS_P1;SDS_P2;PMS_P1;PMS_P2;Temp;Humidity;BMP_temperature;BMP_pressure;BME280_temperature;BME280_humidity;BME280_pressure;Samples;Min_cycle;Max_cycle;Signal;HPM_P1;HPM_P2
2024/02/25 00:00:31;;;;;;;0.60;0.60;;;4.20;99.90;;;;;;6143896;23;20021;-75
2024/02/25 00:02:57;;;;;;;1.15;1.05;;;4.20;99.90;;;;;;6094180;23;20451;-75
2024/02/25 00:05:23;;;;;;;;;;;4.20;99.90;;;;;;6117483;23;20077;-75
2024/02/25 00:07:49;;;;;;;0.60;0.60;;;4.40;99.90;;;;;;6141607;23;19943;-76
2024/02/25 00:10:14;;;;;;;1.42;1.33;;;4.20;99.90;;;;;;6117817;23;20009;-75
2024/02/25 00:12:40;;;;;;;0.63;0.63;;;4.20;99.90;;;;;;6092391;23;20424;-75
2024/02/25 00:15:06;;;;;;;0.60;0.60;;;4.10;99.90;;;;;;6118222;23;20357;-75
2024/02/25 00:17:31;;;;;;;0.50;0.50;;;4.10;99.90;;;;;;6092270;23;20595;-76
2024/02/25 00:19:57;;;;;;;0.57;0.57;;;4.10;99.90;;;;;;6118424;23;20044;-76
2024/02/25 00:22:24;;;;;;;0.90;0.90;;;4.10;99.90;;;;;;6093353;23;20136;-76
2024/02/25 00:24:50;;;;;;;0.80;0.80;;;4.50;99.90;;;;;;6095030;23;20032;-76
2024/02/25 00:27:16;;;;;;;0.60;0.60;;;4.10;99.90;;;;;;6119202;23;20025;-75
2024/02/25 00:29:42;;;;;;;0.57;0.57;;;4.10;99.90;;;;;;6107822;23;20026;-74
2024/02/25 00:32:07;;;;;;;0.52;0.52;;;4.10;99.90;;;;;;6095374;23;20721;-75
2024/02/25 00:34:33;;;;;;;0.50;0.50;;;4.10;99.90;;;;;;6070873;23;20048;-75
2024/02/25 00:36:59;;;;;;;0.50;0.50;;;4.00;99.90;;;;;;6117892;23;20018;-74
2024/02/25 00:39:25;;;;;;;0.77;0.77;;;4.00;99.90;;;;;;6095372;23;20227;-75
2024/02/25 00:41:56;;;;;;;0.90;0.90;;;4.10;99.90;;;;;;6119987;23;20060;-75
2024/02/25 00:44:21;;;;;;;0.85;0.85;;;3.10;99.90;;;;;;6096539;23;20090;-74
2024/02/25 00:46:47;;;;;;;3.63;1.88;;;5.10;99.90;;;;;;6078868;23;20407;-74
2024/02/25 00:49:13;;;;;;;0.50;0.50;;;4.00;99.90;;;;;;6139064;23;20049;-74
2024/02/25 00:51:39;;;;;;;;;;;3.90;99.90;;;;;;6094581;23;20014;-75
2024/02/25 00:54:05;;;;;;;0.50;0.50;;;3.90;99.90;;;;;;6118313;23;19920;-75
2024/02/25 00:56:31;;;;;;;0.57;0.57;;;3.90;99.90;;;;;;6095533;23;20309;-74
2024/02/25 00:58:56;;;;;;;0.50;0.50;;;3.90;99.90;;;;;;6094618;23;20024;-74
2024/02/25 01:01:22;;;;;;;0.82;0.82;;;4.00;99.90;;;;;;6094183;23;20028;-74
2024/02/25 01:03:48;;;;;;;0.40;0.40;;;3.90;99.90;;;;;;6118444;23;20324;-74
2024/02/25 01:06:14;;;;;;;0.50;0.50;;;3.90;99.90;;;;;;6143733;23;20017;-74
2024/02/25 01:08:41;;;;;;;0.50;0.50;;;3.90;99.90;;;;;;6118190;23;20037;-74
2024/02/25 01:11:07;;;;;;;0.45;0.45;;;3.80;99.90;;;;;;6119359;23;20032;-74
2024/02/25 01:13:36;;;;;;;0.52;0.52;;;3.90;99.90;;;;;;6118875;23;20028;-75
2024/02/25 01:16:02;;;;;;;0.45;0.45;;;3.90;99.90;;;;;;6121547;23;20092;-75
2024/02/25 01:18:32;;;;;;;0.82;0.82;;;3.80;99.90;;;;;;6124421;23;20013;-75
2024/02/25 01:20:58;;;;;;;0.57;0.57;;;3.80;99.90;;;;;;6125742;23;20686;-75
2024/02/25 01:23:24;;;;;;;0.50;0.50;;;3.70;99.90;;;;;;6125615;23;20013;-75
2024/02/25 01:25:50;;;;;;;0.60;0.60;;;3.70;99.90;;;;;;6150022;23;20096;-74
2024/02/25 01:28:16;;;;;;;0.50;0.50;;;3.70;99.90;;;;;;6150693;23;20049;-74
2024/02/25 01:30:42;;;;;;;0.63;0.63;;;3.70;99.90;;;;;;6101297;23;20351;-75
2024/02/25 01:33:08;;;;;;;0.60;0.60;;;3.70;99.90;;;;;;6125257;23;20017;-74
2024/02/25 01:35:34;;;;;;;0.45;0.45;;;3.70;99.90;;;;;;6124999;23;20021;-74
2024/02/25 01:38:00;;;;;;;0.50;0.50;;;3.70;99.90;;;;;;6150831;23;20017;-74
2024/02/25 01:40:25;;;;;;;0.60;0.60;;;3.70;99.90;;;;;;6125055;23;20459;-74
2024/02/25 01:43:11;;;;;;;0.47;0.47;;;3.70;99.90;;;;;;6100646;23;20328;-74
2024/02/25 01:45:38;;;;;;;0.50;0.50;;;3.60;99.90;;;;;;6151464;23;20013;-74
2024/02/25 01:48:05;;;;;;;0.50;0.50;;;3.70;99.90;;;;;;6125273;23;20017;-74
2024/02/25 01:50:32;;;;;;;0.50;0.50;;;3.70;99.90;;;;;;6124979;23;20347;-74
2024/02/25 01:52:58;;;;;;;0.52;0.52;;;3.60;99.90;;;;;;6100516;23;20097;-75
2024/02/25 01:55:25;;;;;;;0.60;0.60;;;3.70;99.90;;;;;;6119104;23;20020;-74
2024/02/25 01:57:54;;;;;;;0.60;0.60;;;3.60;99.90;;;;;;6125017;23;20006;-74
2024/02/25 02:00:20;;;;;;;0.60;0.60;;;4.20;99.90;;;;;;6125585;23;20021;-74
2024/02/25 02:02:45;;;;;;;0.50;0.50;;;3.60;99.90;;;;;;6099946;23;20096;-74
2024/02/25 02:05:11;;;;;;;0.60;0.60;;;4.20;99.90;;;;;;6101207;23;20103;-74
2024/02/25 02:07:38;;;;;;;0.50;0.50;;;3.50;99.90;;;;;;6125442;23;20503;-74
2024/02/25 02:10:10;;;;;;;0.50;0.50;;;3.50;99.90;;;;;;6149559;23;20352;-74
2024/02/25 02:12:43;;;;;;;0.40;0.40;;;3.50;99.90;;;;;;6151673;23;20025;-74
2024/02/25 02:15:10;;;;;;;0.68;0.68;;;3.50;99.90;;;;;;6125569;23;20399;-74
2024/02/25 02:17:41;;;;;;;0.40;0.40;;;3.40;99.90;;;;;;6150254;23;20048;-75
2024/02/25 02:20:11;;;;;;;0.65;0.65;;;3.50;99.90;;;;;;6100017;23;20352;-74
2024/02/25 02:22:38;;;;;;;0.75;0.75;;;3.40;99.90;;;;;;6125200;23;20017;-75
2024/02/25 02:25:05;;;;;;;0.68;0.68;;;3.40;99.90;;;;;;6150728;23;20052;-75
2024/02/25 02:27:31;;;;;;;0.70;0.70;;;3.40;99.90;;;;;;6125937;23;20352;-75
2024/02/25 02:29:56;;;;;;;0.68;0.68;;;3.70;99.90;;;;;;6100555;23;20018;-75
2024/02/25 02:32:22;;;;;;;0.68;0.68;;;3.40;99.90;;;;;;6125396;23;20463;-74
2024/02/25 02:34:48;;;;;;;0.35;0.35;;;3.50;99.90;;;;;;6124662;23;20010;-75
2024/02/25 02:37:13;;;;;;;1.00;1.00;;;3.40;99.90;;;;;;6125089;23;20332;-75
2024/02/25 02:39:39;;;;;;;0.50;0.50;;;3.50;99.90;;;;;;6076922;23;20021;-75
2024/02/25 02:42:05;;;;;;;0.60;0.60;;;3.60;99.90;;;;;;6100393;23;20025;-75
2024/02/25 02:44:31;;;;;;;0.60;0.60;;;3.50;99.90;;;;;;6151564;23;20023;-75
2024/02/25 02:46:57;;;;;;;0.70;0.70;;;3.50;99.90;;;;;;6124268;23;20085;-75
2024/02/25 02:49:23;;;;;;;;;;;3.50;99.90;;;;;;6101097;23;20410;-76
2024/02/25 02:51:50;;;;;;;0.65;0.65;;;3.60;99.90;;;;;;6150501;23;19959;-75
2024/02/25 02:54:15;;;;;;;0.93;0.93;;;4.10;99.90;;;;;;6100990;23;20482;-74
2024/02/25 02:56:41;;;;;;;0.50;0.50;;;3.70;99.90;;;;;;6151627;23;20013;-75
2024/02/25 02:59:07;;;;;;;0.50;0.50;;;3.60;99.90;;;;;;6151100;23;20021;-75
2024/02/25 03:01:32;;;;;;;0.73;0.73;;;3.70;99.90;;;;;;6101036;23;20072;-74
2024/02/25 03:03:58;;;;;;;0.52;0.52;;;4.20;99.90;;;;;;6124931;23;20044;-75
2024/02/25 03:06:24;;;;;;;0.60;0.60;;;3.70;99.90;;;;;;6125047;23;20018;-75
2024/02/25 03:08:50;;;;;;;0.52;0.52;;;3.70;99.90;;;;;;6100080;23;20017;-75
2024/02/25 03:11:16;;;;;;;0.40;0.40;;;3.80;99.90;;;;;;6100602;23;20017;-74
2024/02/25 03:13:41;;;;;;;0.60;0.60;;;3.70;99.90;;;;;;6124948;23;20014;-75
2024/02/25 03:16:07;;;;;;;1.30;1.30;;;3.70;99.90;;;;;;6099811;23;20059;-75
2024/02/25 03:18:33;;;;;;;1.35;1.35;;;4.90;99.90;;;;;;6100784;23;20045;-75
2024/02/25 03:20:58;;;;;;;0.50;0.50;;;3.80;99.90;;;;;;6124052;23;20017;-75
2024/02/25 03:23:24;;;;;;;0.70;0.70;;;3.80;99.90;;;;;;6118427;23;20045;-75
2024/02/25 03:25:50;;;;;;;0.60;0.60;;;3.80;99.90;;;;;;6124584;23;20097;-75
2024/02/25 03:28:16;;;;;;;;;;;3.80;99.90;;;;;;6124764;23;20021;-75
2024/02/25 03:30:41;;;;;;;2.75;2.65;;;3.80;99.90;;;;;;6150524;23;19963;-75
2024/02/25 03:33:07;;;;;;;0.57;0.57;;;3.80;99.90;;;;;;6124270;23;20109;-75
2024/02/25 03:35:33;;;;;;;0.47;0.47;;;3.90;99.90;;;;;;6151495;23;20540;-75
2024/02/25 03:38:00;;;;;;;0.50;0.50;;;3.90;99.90;;;;;;6124362;23;20156;-75
2024/02/25 03:40:26;;;;;;;0.55;0.55;;;4.20;99.90;;;;;;6150781;23;20017;-75
2024/02/25 03:42:51;;;;;;;0.43;0.43;;;4.30;99.90;;;;;;6124595;23;20076;-75
2024/02/25 03:45:17;;;;;;;0.60;0.60;;;3.90;99.90;;;;;;6099513;23;20069;-75
2024/02/25 03:47:43;;;;;;;0.70;0.70;;;4.00;99.90;;;;;;6150712;23;20017;-75
2024/02/25 03:50:10;;;;;;;0.73;0.73;;;3.90;99.90;;;;;;6124446;23;20383;-74
2024/02/25 03:52:39;;;;;;;0.57;0.57;;;3.90;99.90;;;;;;6124556;23;20041;-74
2024/02/25 03:55:06;;;;;;;0.50;0.50;;;3.90;99.90;;;;;;6099827;23;20351;-74
2024/02/25 03:57:32;;;;;;;0.50;0.50;;;3.90;99.90;;;;;;6101973;23;20447;-74
2024/02/25 03:59:57;;;;;;;0.63;0.63;;;3.90;99.90;;;;;;6101649;23;20014;-74
2024/02/25 04:02:23;;;;;;;0.50;0.50;;;4.00;99.90;;;;;;6126705;23;20037;-73
2024/02/25 04:04:49;;;;;;;0.60;0.60;;;4.20;99.90;;;;;;6102610;23;20021;-75
2024/02/25 04:07:15;;;;;;;1.25;1.25;;;3.90;99.90;;;;;;6101907;23;20426;-75
2024/02/25 04:09:41;;;;;;;0.60;0.60;;;3.90;99.90;;;;;;6126672;23;20052;-75
2024/02/25 04:12:07;;;;;;;0.65;0.65;;;3.90;99.90;;;;;;6125932;23;20387;-75
2024/02/25 04:14:33;;;;;;;;;;;3.90;99.90;;;;;;6102633;23;20511;-74
2024/02/25 04:16:59;;;;;;;0.60;0.60;;;3.90;99.90;;;;;;6102195;23;19959;-76
2024/02/25 04:19:25;;;;;;;0.70;0.70;;;3.90;99.90;;;;;;6102329;23;20071;-75
2024/02/25 04:21:50;;;;;;;0.70;0.70;;;4.10;99.90;;;;;;6126485;23;20052;-76
2024/02/25 04:24:16;;;;;;;0.40;0.40;;;3.90;99.90;;;;;;6125971;23;20029;-76
2024/02/25 04:26:47;;;;;;;1.30;1.20;;;4.10;99.90;;;;;;6102016;23;20020;-76
2024/02/25 04:29:12;;;;;;;0.40;0.40;;;3.90;99.90;;;;;;6101653;23;20026;-75
2024/02/25 04:31:43;;;;;;;0.50;0.50;;;3.90;99.90;;;;;;6152492;23;20028;-76
2024/02/25 04:34:10;;;;;;;0.50;0.50;;;3.90;99.90;;;;;;6101334;23;20048;-76
2024/02/25 04:36:36;;;;;;;0.50;0.50;;;3.90;99.90;;;;;;6126158;23;20022;-77
2024/02/25 04:39:01;;;;;;;0.30;0.30;;;3.90;99.90;;;;;;6101258;23;20329;-76
2024/02/25 04:41:27;;;;;;;0.60;0.60;;;3.90;99.90;;;;;;6126006;23;20107;-76
2024/02/25 04:43:53;;;;;;;0.60;0.60;;;3.90;99.90;;;;;;6152763;23;20024;-76
2024/02/25 04:46:19;;;;;;;0.55;0.55;;;3.90;99.90;;;;;;6125574;23;20481;-76
2024/02/25 04:48:45;;;;;;;0.40;0.40;;;3.90;99.90;;;;;;6126522;23;20093;-76
2024/02/25 04:51:10;;;;;;;1.20;1.08;;;3.80;99.90;;;;;;6150454;23;20028;-76
2024/02/25 04:53:39;;;;;;;0.52;0.52;;;4.70;99.90;;;;;;6100353;23;20018;-76
2024/02/25 04:56:05;;;;;;;0.50;0.50;;;4.30;99.90;;;;;;6099740;23;20018;-75
2024/02/25 04:58:31;;;;;;;0.50;0.50;;;3.90;99.90;;;;;;6151314;23;20072;-76
2024/02/25 05:00:57;;;;;;;;;;;4.00;99.90;;;;;;6151782;23;20093;-77
2024/02/25 05:03:23;;;;;;;0.52;0.52;;;4.70;99.90;;;;;;6124364;23;19948;-76
2024/02/25 05:05:52;;;;;;;0.60;0.60;;;4.00;99.90;;;;;;6126764;23;20466;-75
2024/02/25 05:08:18;;;;;;;0.50;0.50;;;3.90;99.90;;;;;;6124681;23;20032;-77
2024/02/25 05:10:43;;;;;;;0.50;0.50;;;3.90;99.90;;;;;;6077616;23;20432;-76
2024/02/25 05:13:09;;;;;;;0.50;0.50;;;3.90;99.90;;;;;;6101310;23;20068;-75
2024/02/25 05:15:35;;;;;;;0.60;0.60;;;3.90;99.90;;;;;;6125982;23;20401;-76
2024/02/25 05:18:01;;;;;;;0.50;0.50;;;3.90;99.90;;;;;;6126230;23;20048;-76
2024/02/25 05:20:27;;;;;;;0.40;0.40;;;3.90;99.90;;;;;;6100707;23;20209;-76
2024/02/25 05:22:54;;;;;;;0.60;0.60;;;3.90;99.90;;;;;;6101721;23;20072;-75
2024/02/25 05:25:20;;;;;;;0.50;0.50;;;3.90;99.90;;;;;;6124812;23;20026;-76
2024/02/25 05:27:47;;;;;;;0.50;0.50;;;4.30;99.90;;;;;;6077815;23;20590;-75
2024/02/25 05:30:13;;;;;;;0.52;0.52;;;3.90;99.90;;;;;;6125327;23;20096;-75
2024/02/25 05:32:40;;;;;;;0.35;0.35;;;3.90;99.90;;;;;;6125576;23;20017;-75
2024/02/25 05:35:07;;;;;;;0.52;0.52;;;3.90;99.90;;;;;;6101619;23;20014;-75
2024/02/25 05:37:33;;;;;;;0.60;0.60;;;3.90;99.90;;;;;;6149912;23;20017;-74
2024/02/25 05:39:59;;;;;;;0.57;0.57;;;3.90;99.90;;;;;;6151791;23;20088;-75
2024/02/25 05:42:25;;;;;;;0.30;0.30;;;3.90;99.90;;;;;;6125602;23;20411;-75
2024/02/25 05:44:51;;;;;;;0.70;0.70;;;4.00;99.90;;;;;;6077771;23;20096;-75
2024/02/25 05:47:17;;;;;;;;;;;3.90;99.90;;;;;;6125785;23;20022;-75
2024/02/25 05:49:43;;;;;;;0.60;0.60;;;3.90;99.90;;;;;;6125477;23;19912;-75
2024/02/25 05:52:09;;;;;;;0.52;0.52;;;3.90;99.90;;;;;;6125707;23;20044;-75
2024/02/25 05:54:34;;;;;;;0.52;0.52;;;3.90;99.90;;;;;;6124642;23;20020;-75
2024/02/25 05:57:00;;;;;;;0.60;0.60;;;3.90;99.90;;;;;;6125687;23;20025;-75
2024/02/25 05:59:26;;;;;;;0.60;0.60;;;3.90;99.90;;;;;;6125442;23;20141;-75
2024/02/25 06:01:51;;;;;;;0.50;0.50;;;4.80;99.90;;;;;;6126009;23;20018;-77
2024/02/25 06:04:19;;;;;;;0.60;0.60;;;3.90;99.90;;;;;;6125001;23;20379;-75
2024/02/25 06:06:52;;;;;;;0.50;0.50;;;3.90;99.90;;;;;;6125850;23;20028;-76
2024/02/25 06:09:18;;;;;;;1.25;1.25;;;3.90;99.90;;;;;;6100529;23;20021;-75
2024/02/25 06:11:45;;;;;;;0.50;0.50;;;3.90;99.90;;;;;;6125565;23;20072;-75
2024/02/25 06:14:10;;;;;;;0.50;0.50;;;3.90;99.90;;;;;;6151910;23;20018;-75
2024/02/25 06:16:37;;;;;;;0.60;0.60;;;3.90;99.90;;;;;;6100513;23;20043;-75
2024/02/25 06:19:02;;;;;;;;;;;3.90;99.90;;;;;;6125908;23;20325;-75
2024/02/25 06:21:28;;;;;;;0.73;0.73;;;4.00;99.90;;;;;;6124901;23;20257;-75
2024/02/25 06:23:55;;;;;;;0.50;0.50;;;4.00;99.90;;;;;;6095859;23;20028;-74
2024/02/25 06:26:21;;;;;;;0.70;0.70;;;4.40;99.90;;;;;;6121468;23;20053;-73
2024/02/25 06:28:46;;;;;;;0.70;0.70;;;4.00;99.90;;;;;;6100946;23;20021;-74
2024/02/25 06:31:12;;;;;;;0.60;0.60;;;4.00;99.90;;;;;;6125717;23;20092;-74
2024/02/25 06:33:38;;;;;;;0.50;0.50;;;4.00;99.90;;;;;;6124769;23;20009;-74
2024/02/25 06:36:04;;;;;;;0.60;0.60;;;4.10;99.90;;;;;;6125151;23;20503;-74
2024/02/25 06:38:29;;;;;;;1.42;1.33;;;4.10;99.90;;;;;;6124393;23;20013;-74
2024/02/25 06:40:55;;;;;;;0.45;0.45;;;5.00;99.90;;;;;;6125159;23;20033;-74
2024/02/25 06:43:23;;;;;;;0.55;0.55;;;4.20;99.90;;;;;;6151032;23;20040;-74
2024/02/25 06:45:48;;;;;;;0.60;0.60;;;4.20;99.90;;;;;;6124761;23;20017;-74
2024/02/25 06:48:14;;;;;;;0.60;0.60;;;4.40;99.90;;;;;;6125079;23;20014;-75
2024/02/25 06:50:40;;;;;;;0.50;0.50;;;4.30;99.90;;;;;;6100402;23;20024;-74
2024/02/25 06:53:06;;;;;;;0.57;0.57;;;4.30;99.90;;;;;;6100159;23;20057;-74
2024/02/25 06:55:31;;;;;;;0.50;0.50;;;4.30;99.90;;;;;;6150508;23;20088;-73
2024/02/25 06:57:57;;;;;;;0.43;0.43;;;4.30;99.90;;;;;;6099973;23;20017;-75
2024/02/25 07:00:23;;;;;;;0.52;0.52;;;4.30;99.90;;;;;;6123661;23;20499;-74
2024/02/25 07:02:54;;;;;;;0.60;0.60;;;4.30;99.90;;;;;;6151856;23;20017;-74
2024/02/25 07:05:20;;;;;;;0.60;0.60;;;4.50;99.90;;;;;;6100630;23;20100;-75
2024/02/25 07:07:46;;;;;;;0.47;0.47;;;4.40;99.90;;;;;;6100508;23;20017;-74
2024/02/25 07:10:12;;;;;;;1.85;1.75;;;4.40;99.90;;;;;;6100555;23;20407;-74
2024/02/25 07:12:38;;;;;;;0.40;0.40;;;4.40;99.90;;;;;;6124248;23;20033;-75
2024/02/25 07:15:04;;;;;;;0.40;0.40;;;4.40;99.90;;;;;;6125088;23;20017;-76
2024/02/25 07:17:30;;;;;;;0.50;0.50;;;4.40;99.90;;;;;;6124642;23;20340;-75
2024/02/25 07:19:56;;;;;;;0.52;0.52;;;4.40;99.90;;;;;;6125089;23;20018;-75
2024/02/25 07:22:22;;;;;;;0.50;0.50;;;4.40;99.90;;;;;;6125251;23;20021;-75
2024/02/25 07:24:47;;;;;;;0.40;0.40;;;4.50;99.90;;;;;;6124247;23;20356;-75
2024/02/25 07:27:13;;;;;;;0.50;0.50;;;4.50;99.90;;;;;;6151333;23;20021;-75
2024/02/25 07:29:39;;;;;;;0.50;0.50;;;4.50;99.90;;;;;;6124392;23;20100;-75
2024/02/25 07:32:05;;;;;;;0.60;0.60;;;4.50;99.90;;;;;;6124022;23;20487;-75
2024/02/25 07:34:30;;;;;;;;;;;4.50;99.90;;;;;;6124165;23;20021;-75
2024/02/25 07:36:56;;;;;;;0.98;0.98;;;4.50;99.90;;;;;;6150890;23;19912;-74
2024/02/25 07:39:22;;;;;;;0.45;0.45;;;4.60;99.90;;;;;;6124390;23;20021;-75
2024/02/25 07:41:49;;;;;;;0.68;0.68;;;4.60;99.90;;;;;;6150221;23;20582;-74
2024/02/25 07:44:15;;;;;;;0.80;0.80;;;4.60;99.90;;;;;;6123410;23;20447;-74
2024/02/25 07:46:41;;;;;;;0.60;0.60;;;4.70;99.90;;;;;;6150201;23;20049;-74
2024/02/25 07:49:07;;;;;;;0.50;0.50;;;4.70;99.90;;;;;;6124440;23;20021;-74
2024/02/25 07:51:36;;;;;;;1.13;1.02;;;4.70;99.90;;;;;;6124017;23;20421;-73
2024/02/25 07:54:02;;;;;;;0.60;0.60;;;4.70;99.90;;;;;;6125095;23;20469;-73
2024/02/25 07:56:27;;;;;;;0.40;0.40;;;4.70;99.90;;;;;;6123859;23;20096;-76
2024/02/25 07:58:54;;;;;;;0.50;0.50;;;5.10;99.90;;;;;;6119116;23;20018;-77
2024/02/25 08:01:19;;;;;;;;;;;4.80;99.90;;;;;;6150800;23;20018;-74
2024/02/25 08:03:45;;;;;;;0.60;0.60;;;4.80;99.90;;;;;;6153164;23;19920;-84
2024/02/25 08:06:11;;;;;;;0.40;0.40;;;4.80;99.90;;;;;;6134655;23;20096;-82
2024/02/25 08:08:37;;;;;;;0.95;0.95;;;4.80;99.90;;;;;;6160118;23;20017;-82
2024/02/25 08:11:03;;;;;;;0.90;0.90;;;4.80;99.90;;;;;;6152519;23;20064;-81
2024/02/25 08:13:29;;;;;;;0.40;0.40;;;6.10;99.90;;;;;;6128510;23;20072;-81
2024/02/25 08:15:55;;;;;;;0.60;0.60;;;4.90;99.90;;;;;;6130107;23;20017;-81
2024/02/25 08:18:21;;;;;;;0.60;0.60;;;4.90;99.90;;;;;;6129172;23;20463;-80
2024/02/25 08:20:46;;;;;;;0.80;0.80;;;4.90;99.90;;;;;;6130608;23;20020;-81
2024/02/25 08:23:14;;;;;;;0.55;0.55;;;5.00;99.90;;;;;;6131003;23;20024;-82
2024/02/25 08:25:40;;;;;;;1.00;1.00;;;6.10;99.90;;;;;;6155630;23;20025;-82
2024/02/25 08:28:06;;;;;;;0.50;0.50;;;5.10;99.90;;;;;;6129317;23;20013;-82
2024/02/25 08:30:32;;;;;;;0.60;0.60;;;5.40;99.90;;;;;;6129839;23;20013;-81
2024/02/25 08:32:58;;;;;;;0.50;0.50;;;4.40;99.90;;;;;;6128986;23;20024;-82
2024/02/25 08:35:23;;;;;;;0.60;0.60;;;5.30;99.90;;;;;;6129606;23;20057;-81
2024/02/25 08:37:49;;;;;;;0.50;0.50;;;5.50;99.90;;;;;;6128587;23;20053;-82
2024/02/25 08:40:15;;;;;;;0.73;0.73;;;5.40;99.90;;;;;;6128010;23;20018;-81
2024/02/25 08:42:41;;;;;;;0.50;0.50;;;5.50;99.90;;;;;;6104258;23;20021;-81
2024/02/25 08:45:07;;;;;;;3.03;0.60;;;5.60;99.90;;;;;;6104027;23;20055;-82
2024/02/25 08:47:33;;;;;;;0.50;0.50;;;5.70;99.90;;;;;;6159918;23;20021;-82
2024/02/25 08:49:59;;;;;;;0.73;0.73;;;5.70;99.90;;;;;;6114951;23;20419;-83
2024/02/25 08:52:24;;;;;;;0.50;0.50;;;5.70;99.90;;;;;;6137639;23;20021;-83
2024/02/25 08:54:50;;;;;;;0.60;0.60;;;5.70;99.90;;;;;;6111312;23;20020;-83
2024/02/25 08:57:16;;;;;;;0.65;0.65;;;5.80;99.90;;;;;;6133604;23;20502;-83
2024/02/25 08:59:42;;;;;;;;;;;5.70;99.90;;;;;;6111129;23;20009;-83
2024/02/25 09:02:08;;;;;;;1.27;1.27;;;5.70;99.90;;;;;;6161994;23;20326;-83
2024/02/25 09:04:34;;;;;;;1.08;1.08;;;5.70;99.90;;;;;;6137423;23;20024;-82
2024/02/25 09:07:00;;;;;;;0.80;0.80;;;5.70;99.90;;;;;;6112479;23;20021;-83
2024/02/25 09:09:27;;;;;;;0.47;0.47;;;5.70;99.90;;;;;;6137641;23;20518;-84
2024/02/25 09:11:53;;;;;;;0.60;0.60;;;5.70;99.90;;;;;;6133218;23;20021;-76
2024/02/25 09:14:18;;;;;;;0.40;0.40;;;5.80;99.90;;;;;;6125304;23;20575;-78
2024/02/25 09:16:44;;;;;;;0.90;0.90;;;5.90;99.90;;;;;;6101705;23;20085;-75
2024/02/25 09:19:11;;;;;;;0.60;0.60;;;6.00;99.90;;;;;;6153083;23;20017;-75
2024/02/25 09:21:36;;;;;;;0.73;0.73;;;6.10;99.90;;;;;;6151372;23;20346;-78
2024/02/25 09:24:02;;;;;;;0.80;0.80;;;6.10;99.90;;;;;;6102035;23;20028;-78
2024/02/25 09:26:28;;;;;;;0.52;0.52;;;6.10;99.90;;;;;;6127002;23;20017;-72
2024/02/25 09:28:54;;;;;;;0.50;0.50;;;6.20;99.90;;;;;;6152217;23;20053;-73
2024/02/25 09:31:19;;;;;;;0.55;0.55;;;6.20;99.90;;;;;;6126719;23;20064;-73
2024/02/25 09:33:46;;;;;;;0.50;0.50;;;6.20;99.90;;;;;;6125809;23;20029;-72
2024/02/25 09:36:12;;;;;;;0.60;0.60;;;6.20;99.90;;;;;;6126236;23;20444;-74
2024/02/25 09:38:38;;;;;;;0.60;0.60;;;6.30;99.90;;;;;;6102394;23;20013;-75
2024/02/25 09:41:04;;;;;;;1.60;1.52;;;6.20;99.90;;;;;;6152208;23;20020;-76
2024/02/25 09:43:30;;;;;;;0.70;0.70;;;6.60;99.90;;;;;;6125306;23;20022;-73
2024/02/25 09:45:57;;;;;;;0.95;0.95;;;6.20;99.90;;;;;;6125812;23;20023;-76
2024/02/25 09:48:24;;;;;;;0.60;0.60;;;6.10;99.90;;;;;;6102008;23;20017;-74
2024/02/25 09:50:51;;;;;;;0.55;0.55;;;6.20;99.90;;;;;;6151444;23;20077;-75
2024/02/25 09:53:21;;;;;;;0.60;0.60;;;6.20;99.90;;;;;;6101048;23;20539;-78
2024/02/25 09:55:48;;;;;;;0.40;0.40;;;6.30;99.90;;;;;;6102418;23;20099;-73
2024/02/25 09:58:17;;;;;;;2.45;0.68;;;6.40;99.90;;;;;;6151209;23;20044;-76
2024/02/25 10:00:43;;;;;;;0.47;0.47;;;6.40;99.90;;;;;;6140853;23;20014;-75
2024/02/25 10:03:11;;;;;;;0.50;0.50;;;6.40;99.90;;;;;;6125723;23;20486;-76
2024/02/25 10:05:37;;;;;;;0.43;0.43;;;6.40;99.90;;;;;;6127323;23;20551;-75
2024/02/25 10:08:10;;;;;;;0.45;0.45;;;6.40;99.90;;;;;;6125529;23;20052;-76
2024/02/25 10:10:37;;;;;;;0.50;0.50;;;6.40;99.90;;;;;;6132756;23;20014;-84
2024/02/25 10:13:04;;;;;;;0.40;0.40;;;6.40;99.90;;;;;;6089363;23;20025;-80
2024/02/25 10:15:30;;;;;;;1.27;1.27;;;6.50;99.90;;;;;;6153810;23;20010;-77
2024/02/25 10:17:56;;;;;;;0.70;0.70;;;6.50;99.90;;;;;;6125523;23;20021;-75
2024/02/25 10:20:21;;;;;;;0.70;0.70;;;6.50;99.90;;;;;;6152679;23;20012;-75
2024/02/25 10:22:47;;;;;;;0.50;0.50;;;6.60;99.90;;;;;;6125600;23;20037;-75
2024/02/25 10:25:13;;;;;;;0.55;0.55;;;6.60;99.90;;;;;;6151081;23;20127;-76
2024/02/25 10:27:39;;;;;;;0.65;0.65;;;6.80;99.90;;;;;;6094515;23;20023;-75
2024/02/25 10:30:06;;;;;;;1.55;1.45;;;6.50;99.90;;;;;;6123475;23;20020;-76
2024/02/25 10:32:41;;;;;;;0.93;0.88;;;6.50;99.90;;;;;;6125378;23;20063;-75
2024/02/25 10:35:09;;;;;;;0.50;0.50;;;6.40;99.90;;;;;;6124331;23;20018;-77
2024/02/25 10:37:35;;;;;;;0.47;0.47;;;6.40;99.90;;;;;;6100813;23;20348;-76
2024/02/25 10:40:07;;;;;;;0.73;0.73;;;6.40;99.90;;;;;;6150788;23;20024;-76
2024/02/25 10:42:35;;;;;;;0.65;0.65;;;6.40;99.90;;;;;;6125599;23;20024;-75
2024/02/25 10:45:01;;;;;;;2.30;0.85;;;6.50;99.90;;;;;;6098111;23;20017;-74
2024/02/25 10:47:27;;;;;;;0.63;0.63;;;6.90;99.90;;;;;;6125274;23;20017;-75
2024/02/25 10:49:54;;;;;;;0.82;0.82;;;6.80;99.90;;;;;;6100576;23;20076;-76
2024/02/25 10:52:28;;;;;;;0.65;0.63;;;6.90;99.90;;;;;;6149728;23;20025;-76
2024/02/25 10:54:57;;;;;;;0.85;0.85;;;7.00;99.90;;;;;;6150093;23;20016;-75
2024/02/25 10:57:23;;;;;;;0.60;0.60;;;7.10;99.90;;;;;;6124531;23;20495;-75
2024/02/25 10:59:49;;;;;;;1.38;1.27;;;7.20;99.90;;;;;;6123237;23;20014;-75
2024/02/25 11:02:18;;;;;;;1.70;1.65;;;7.40;99.90;;;;;;6149195;23;20028;-76
2024/02/25 11:04:45;;;;;;;1.30;1.30;;;7.50;99.90;;;;;;6150299;23;20471;-75
2024/02/25 11:07:12;;;;;;;0.63;0.63;;;7.50;99.90;;;;;;6123601;23;20022;-75
2024/02/25 11:09:38;;;;;;;1.25;0.93;;;7.50;99.90;;;;;;6150696;23;20013;-76
2024/02/25 11:12:25;;;;;;;0.93;0.93;;;7.50;99.90;;;;;;6123988;23;20025;-75
2024/02/25 11:15:02;;;;;;;0.45;0.45;;;7.60;99.90;;;;;;6149603;23;20166;-76
2024/02/25 11:17:35;;;;;;;0.98;0.98;;;7.80;99.90;;;;;;6124537;23;20010;-76
2024/02/25 11:20:07;;;;;;;0.30;0.30;;;8.10;99.90;;;;;;6100350;23;20080;-76
2024/02/25 11:22:39;;;;;;;1.25;1.02;;;8.20;99.90;;;;;;6124783;23;20454;-76
2024/02/25 11:25:06;;;;;;;0.50;0.50;;;8.20;99.90;;;;;;6124106;23;20463;-76
2024/02/25 11:27:57;;;;;;;0.40;0.40;;;8.20;99.90;;;;;;6124378;23;20023;-78
2024/02/25 11:30:33;;;;;;;0.95;0.95;;;8.30;99.90;;;;;;6148940;23;20017;-77
2024/02/25 11:32:58;;;;;;;0.50;0.50;;;8.30;99.90;;;;;;6150863;23;20096;-76
2024/02/25 11:35:24;;;;;;;1.20;1.20;;;8.40;99.90;;;;;;6125162;23;20056;-77
2024/02/25 11:37:50;;;;;;;1.08;1.08;;;8.60;99.90;;;;;;6126051;23;20044;-78
2024/02/25 11:40:16;;;;;;;0.90;0.90;;;8.50;99.90;;;;;;6099709;23;20920;-77
2024/02/25 11:42:42;;;;;;;0.57;0.57;;;8.50;99.90;;;;;;6124910;23;20045;-78
2024/02/25 11:45:08;;;;;;;;;;;8.40;99.90;;;;;;6148890;23;20018;-78
2024/02/25 11:47:36;;;;;;;0.30;0.30;;;8.30;99.90;;;;;;6101351;23;19924;-77
2024/02/25 11:50:01;;;;;;;1.48;1.38;;;8.30;99.90;;;;;;6151486;23;20345;-77
2024/02/25 11:52:27;;;;;;;0.60;0.60;;;7.60;99.90;;;;;;6100682;23;20024;-77
2024/02/25 11:54:53;;;;;;;2.05;1.08;;;8.20;99.90;;;;;;6125099;23;20088;-78
2024/02/25 11:57:19;;;;;;;0.43;0.43;;;8.10;99.90;;;;;;6124690;23;20451;-78
2024/02/25 11:59:45;;;;;;;0.85;0.60;;;8.00;99.90;;;;;;6122623;23;20471;-78
2024/02/25 12:02:11;;;;;;;1.08;0.80;;;7.80;99.90;;;;;;6124858;23;20020;-76
2024/02/25 12:04:37;;;;;;;0.70;0.70;;;7.70;99.90;;;;;;6125361;23;20346;-77
2024/02/25 12:07:04;;;;;;;0.60;0.60;;;7.50;99.90;;;;;;6150087;23;20507;-77
2024/02/25 12:09:30;;;;;;;4.43;0.77;;;7.50;99.90;;;;;;6150983;23;20343;-77
2024/02/25 12:11:56;;;;;;;0.40;0.40;;;7.70;99.90;;;;;;6124049;23;20017;-78
2024/02/25 12:14:22;;;;;;;;;;;7.80;99.90;;;;;;6123881;23;20307;-78
2024/02/25 12:16:50;;;;;;;0.43;0.43;;;8.00;99.90;;;;;;6150863;23;19916;-78
2024/02/25 12:19:17;;;;;;;0.50;0.50;;;8.20;99.90;;;;;;6126400;23;20088;-77
2024/02/25 12:21:50;;;;;;;0.70;0.70;;;8.30;99.90;;;;;;6152731;23;20018;-78
2024/02/25 12:24:16;;;;;;;0.70;0.70;;;8.30;99.90;;;;;;6125934;23;20022;-77
2024/02/25 12:26:55;;;;;;;0.38;0.38;;;8.20;99.90;;;;;;6152927;23;20036;-77
2024/02/25 12:29:23;;;;;;;0.70;0.70;;;8.10;99.90;;;;;;6124064;23;20053;-78
2024/02/25 12:31:48;;;;;;;0.50;0.50;;;8.00;99.90;;;;;;6126247;23;20025;-78
2024/02/25 12:34:16;;;;;;;0.30;0.30;;;7.90;99.90;;;;;;6126150;23;20013;-78
2024/02/25 12:36:44;;;;;;;1.25;1.25;;;7.80;99.90;;;;;;6153474;23;20017;-78
2024/02/25 12:39:12;;;;;;;0.40;0.40;;;7.70;99.90;;;;;;6078924;23;20049;-80
2024/02/25 12:41:40;;;;;;;0.40;0.40;;;7.50;99.90;;;;;;6134952;23;20013;-80
2024/02/25 12:44:07;;;;;;;0.52;0.52;;;7.40;99.90;;;;;;6082140;23;20021;-80
2024/02/25 12:46:36;;;;;;;0.40;0.40;;;7.20;99.90;;;;;;6154041;23;20029;-80
2024/02/25 12:49:14;;;;;;;0.40;0.40;;;6.90;99.90;;;;;;6103203;23;20053;-81
2024/02/25 12:51:43;;;;;;;0.40;0.40;;;6.50;99.90;;;;;;6152865;23;20059;-82
2024/02/25 12:54:09;;;;;;;0.40;0.40;;;6.30;99.90;;;;;;6151677;23;20380;-81
2024/02/25 12:56:37;;;;;;;0.40;0.40;;;6.20;99.90;;;;;;6102485;23;20047;-81